createdAt,value
2023-01-13T00:06:29.778Z,4.9
2023-01-13T00:21:29.519Z,4.9
2023-01-13T00:36:29.483Z,4.8
2023-01-13T00:51:29.490Z,5
2023-01-13T01:06:29.450Z,5
2023-01-13T01:21:29.601Z,4.6
2023-01-13T01:36:29.612Z,4.8
2023-01-13T01:51:29.461Z,4.9
2023-01-13T02:06:29.413Z,4.7
2023-01-13T02:21:29.441Z,4.4
2023-01-13T02:36:29.389Z,4.6
2023-01-13T02:51:29.430Z,4.6
2023-01-13T03:06:29.397Z,4.9
2023-01-13T03:21:29.418Z,5.2
2023-01-13T03:36:29.387Z,4.6
2023-01-13T03:51:29.399Z,4.4
2023-01-13T04:06:29.367Z,4
2023-01-13T04:21:29.373Z,4
2023-01-13T04:36:29.354Z,4.5
2023-01-13T04:51:29.364Z,4.7
2023-01-13T05:06:29.320Z,4.4
2023-01-13T05:21:29.342Z,4.3
2023-01-13T05:36:29.326Z,4.3
2023-01-13T05:51:29.335Z,4.3
2023-01-13T06:06:29.311Z,4.3
2023-01-13T06:21:29.334Z,4.3
2023-01-13T06:36:29.265Z,4.4
2023-01-13T06:51:29.293Z,4.5
2023-01-13T07:06:29.244Z,4.5
2023-01-13T07:21:29.261Z,4.5
2023-01-13T07:36:29.232Z,4.6
2023-01-13T07:51:29.257Z,4.6
2023-01-13T08:06:29.244Z,4.6
2023-01-13T08:21:29.272Z,4.6
2023-01-13T08:36:29.205Z,4.7
2023-01-13T08:51:29.225Z,4.7
2023-01-13T09:06:29.207Z,4.7
2023-01-13T09:21:29.187Z,4.7
2023-01-13T09:36:29.214Z,4.8
2023-01-13T09:51:29.257Z,4.8
2023-01-13T10:06:29.144Z,5
2023-01-13T10:21:29.179Z,5.4
2023-01-13T10:36:29.112Z,5.7
2023-01-13T10:51:29.158Z,5.9
2023-01-13T11:06:29.110Z,7.1
2023-01-13T11:21:29.101Z,8.1
2023-01-13T11:36:29.080Z,9.4
2023-01-13T11:51:29.053Z,9.7
2023-01-13T12:06:29.040Z,9.2
2023-01-13T12:21:29.054Z,8.9
2023-01-13T12:36:29.016Z,8.4
2023-01-13T12:51:29.027Z,8.4
2023-01-13T13:06:28.999Z,8.7
2023-01-13T13:21:28.996Z,8.5
2023-01-13T13:36:28.959Z,8.4
2023-01-13T13:51:28.990Z,8.3
2023-01-13T14:06:28.920Z,8.3
2023-01-13T14:21:28.898Z,8.2
2023-01-13T14:36:28.837Z,8
2023-01-13T14:51:28.844Z,7.8
2023-01-13T15:06:28.800Z,7.8
2023-01-13T15:21:28.819Z,7.9
2023-01-13T15:36:28.959Z,7.8
2023-01-13T15:51:28.792Z,7.6
2023-01-13T16:06:28.758Z,7.3
2023-01-13T16:21:28.791Z,7.1
2023-01-13T16:36:28.771Z,7
2023-01-13T16:51:28.804Z,7.1
2023-01-13T17:06:28.786Z,7.1
2023-01-13T17:21:28.774Z,7.1
2023-01-13T17:36:28.771Z,7
2023-01-13T17:51:28.743Z,7.1
2023-01-13T18:06:28.742Z,7
2023-01-13T18:21:28.707Z,7
2023-01-13T18:36:28.698Z,7
2023-01-13T18:51:28.678Z,6.8
2023-01-13T19:06:30.154Z,6.6
2023-01-13T19:21:28.673Z,6.5
2023-01-13T19:36:28.661Z,6.6
2023-01-13T19:51:28.780Z,6.9
2023-01-13T20:06:28.642Z,6.8
2023-01-13T20:21:28.661Z,6.5
2023-01-13T20:36:29.711Z,6.3
2023-01-13T20:51:28.634Z,6.4
2023-01-13T21:06:28.625Z,6.5
2023-01-13T21:21:28.626Z,6.6
2023-01-13T21:36:28.630Z,6.4
2023-01-13T21:51:28.598Z,6.1
2023-01-13T22:06:28.575Z,5.8
2023-01-13T22:21:28.584Z,5.4
2023-01-13T22:36:28.515Z,5.2
2023-01-13T22:51:28.559Z,4.9
2023-01-13T23:06:28.498Z,5.1
2023-01-13T23:21:28.537Z,5.1
2023-01-13T23:36:28.512Z,4.9
2023-01-13T23:51:28.483Z,4.9
